createdAt,value
2019-04-14T00:01:21.675Z,32.40
2019-04-14T00:03:52.802Z,27.60
2019-04-14T00:06:22.533Z,31.00
2019-04-14T00:08:52.276Z,31.30
2019-04-14T00:11:21.765Z,26.17
2019-04-14T00:13:52.351Z,27.70
2019-04-14T00:16:22.896Z,27.07
2019-04-14T00:18:55.546Z,25.13
2019-04-14T00:21:26.005Z,26.77
2019-04-14T00:23:58.859Z,26.00
2019-04-14T00:26:36.207Z,28.13
2019-04-14T00:29:06.789Z,26.40
2019-04-14T00:31:39.114Z,23.50
2019-04-14T00:34:25.098Z,20.50
2019-04-14T00:37:01.994Z,23.50
2019-04-14T00:39:33.613Z,27.80
2019-04-14T00:42:16.971Z,21.50
2019-04-14T00:44:51.880Z,22.90
2019-04-14T00:47:49.251Z,25.40
2019-04-14T00:50:10.150Z,21.40
2019-04-14T00:52:48.037Z,26.07
2019-04-14T00:55:18.416Z,25.43
2019-04-14T00:57:51.504Z,22.73
2019-04-14T01:00:21.950Z,21.13
2019-04-14T01:02:57.963Z,24.20
2019-04-14T01:05:30.243Z,23.73
2019-04-14T01:07:58.795Z,21.37
2019-04-14T01:10:28.276Z,21.97
2019-04-14T01:12:58.188Z,25.53
2019-04-14T01:15:31.157Z,23.80
2019-04-14T01:18:01.519Z,22.20
2019-04-14T01:20:32.373Z,19.50
2019-04-14T01:23:02.660Z,22.10
2019-04-14T01:25:34.570Z,23.50
2019-04-14T01:28:04.682Z,21.03
2019-04-14T01:30:35.115Z,22.23
2019-04-14T01:33:05.431Z,19.33
2019-04-14T01:35:37.889Z,17.70
2019-04-14T01:38:08.281Z,19.50
2019-04-14T01:40:38.694Z,29.97
2019-04-14T01:43:08.183Z,18.17
2019-04-14T01:45:40.261Z,23.40
2019-04-14T01:48:11.204Z,23.17
2019-04-14T01:50:51.595Z,18.53
2019-04-14T01:53:32.024Z,21.67
2019-04-14T01:56:04.046Z,19.67
2019-04-14T01:58:36.105Z,19.83
2019-04-14T02:01:10.513Z,20.10
2019-04-14T02:03:40.981Z,19.70
2019-04-14T02:06:11.450Z,18.07
2019-04-14T02:08:43.690Z,18.30
2019-04-14T02:11:13.700Z,18.57
2019-04-14T02:13:44.249Z,18.53
2019-04-14T02:16:26.005Z,20.97
2019-04-14T02:18:47.127Z,19.43
2019-04-14T02:21:17.567Z,19.20
2019-04-14T02:23:47.545Z,17.77
2019-04-14T02:26:18.241Z,16.67
2019-04-14T02:28:48.255Z,15.93
2019-04-14T02:31:38.352Z,19.10
2019-04-14T02:34:15.580Z,16.97
2019-04-14T02:39:20.631Z,16.57
2019-04-14T02:42:00.870Z,17.67
2019-04-14T02:47:15.023Z,18.37
2019-04-14T02:49:28.663Z,19.10
2019-04-14T02:51:58.534Z,16.63
2019-04-14T02:54:36.927Z,16.77
2019-04-14T02:57:06.782Z,16.10
2019-04-14T02:59:32.057Z,18.33
2019-04-14T03:02:20.671Z,24.40
2019-04-14T03:07:10.310Z,19.63
2019-04-14T03:12:01.419Z,16.30
2019-04-14T03:14:43.598Z,17.37
2019-04-14T03:17:25.375Z,17.90
2019-04-14T03:20:07.143Z,17.73
2019-04-14T03:22:46.490Z,20.60
2019-04-14T03:25:17.474Z,16.03
2019-04-14T03:27:58.495Z,17.07
2019-04-14T03:30:57.653Z,23.97
2019-04-14T03:38:21.929Z,16.33
2019-04-14T03:40:44.607Z,15.77
2019-04-14T03:43:18.420Z,15.27
2019-04-14T03:50:45.970Z,13.53
2019-04-14T03:53:27.711Z,15.30
2019-04-14T03:55:55.545Z,16.80
2019-04-14T03:58:20.662Z,13.70
2019-04-14T04:00:51.342Z,19.57
2019-04-14T04:03:23.827Z,19.03
2019-04-14T04:05:56.415Z,15.93
2019-04-14T04:08:26.839Z,14.67
2019-04-14T04:10:59.812Z,15.83
2019-04-14T04:13:30.236Z,17.67
2019-04-14T04:16:18.376Z,15.47
2019-04-14T04:18:57.975Z,15.70
2019-04-14T04:21:20.715Z,21.37
2019-04-14T04:23:51.817Z,16.43
2019-04-14T04:26:32.205Z,13.67
2019-04-14T04:29:06.992Z,15.67
2019-04-14T04:31:38.109Z,15.43
2019-04-14T04:34:16.291Z,18.73
2019-04-14T04:36:55.975Z,18.17
2019-04-14T04:39:30.219Z,15.37
2019-04-14T04:42:04.835Z,16.30
2019-04-14T04:44:35.620Z,15.07
2019-04-14T04:47:05.662Z,15.10
2019-04-14T04:49:36.167Z,13.87
2019-04-14T04:52:09.935Z,17.40
2019-04-14T04:54:40.475Z,15.40
2019-04-14T04:57:11.352Z,13.60
2019-04-14T04:59:40.989Z,13.33
2019-04-14T05:02:15.536Z,15.33
2019-04-14T05:04:45.981Z,18.23
2019-04-14T05:07:16.553Z,16.63
2019-04-14T05:09:51.209Z,16.87
2019-04-14T05:12:41.310Z,11.83
2019-04-14T05:15:16.902Z,14.27
2019-04-14T05:17:48.152Z,15.03
2019-04-14T05:20:20.305Z,14.33
2019-04-14T05:22:50.839Z,12.20
2019-04-14T05:25:23.297Z,16.83
2019-04-14T05:27:58.057Z,16.97
2019-04-14T05:30:26.393Z,13.83
2019-04-14T05:33:00.917Z,14.30
2019-04-14T05:35:34.371Z,17.23
2019-04-14T05:38:04.068Z,14.93
2019-04-14T05:40:36.340Z,15.27
2019-04-14T05:43:06.990Z,13.03
2019-04-14T05:45:37.329Z,12.90
2019-04-14T05:48:09.740Z,12.27
2019-04-14T05:50:42.217Z,12.70
2019-04-14T05:53:11.739Z,12.73
2019-04-14T05:55:41.655Z,15.63
2019-04-14T05:58:12.125Z,18.07
2019-04-14T06:00:43.722Z,12.07
2019-04-14T06:03:14.482Z,14.33
2019-04-14T06:05:47.154Z,12.37
2019-04-14T06:08:19.371Z,10.00
2019-04-14T06:10:48.869Z,16.70
2019-04-14T06:13:18.331Z,14.57
2019-04-14T06:15:47.789Z,14.70
2019-04-14T06:18:17.250Z,11.37
2019-04-14T06:20:46.666Z,16.73
2019-04-14T06:23:17.853Z,15.90
2019-04-14T06:25:49.895Z,12.83
2019-04-14T06:28:20.868Z,14.03
2019-04-14T06:30:51.998Z,12.87
2019-04-14T06:33:23.169Z,17.43
2019-04-14T06:36:05.427Z,12.63
2019-04-14T06:38:53.081Z,15.43
2019-04-14T06:41:31.014Z,11.90
2019-04-14T06:44:00.456Z,13.10
2019-04-14T06:46:29.966Z,10.97
2019-04-14T06:48:59.431Z,11.80
2019-04-14T06:51:28.879Z,13.87
2019-04-14T06:53:59.002Z,14.70
2019-04-14T06:56:30.066Z,13.00
2019-04-14T06:58:59.518Z,13.03
2019-04-14T07:01:29.034Z,11.10
2019-04-14T07:03:58.526Z,10.97
2019-04-14T07:06:28.071Z,11.87
2019-04-14T07:08:57.516Z,12.47
2019-04-14T07:11:26.960Z,13.43
2019-04-14T07:13:56.571Z,10.80
2019-04-14T07:16:26.018Z,11.40
2019-04-14T07:18:55.500Z,12.33
2019-04-14T07:21:24.976Z,11.30
2019-04-14T07:23:54.430Z,13.60
2019-04-14T07:26:23.936Z,13.13
2019-04-14T07:28:56.986Z,14.47
2019-04-14T07:31:26.318Z,14.90
2019-04-14T07:34:00.360Z,12.83
2019-04-14T07:36:31.440Z,11.80
2019-04-14T07:39:02.576Z,13.13
2019-04-14T07:41:37.808Z,13.07
2019-04-14T07:44:11.480Z,13.43
2019-04-14T07:46:42.588Z,10.93
2019-04-14T07:49:29.579Z,11.23
2019-04-14T07:52:15.932Z,10.53
2019-04-14T07:54:47.028Z,10.07
2019-04-14T07:57:23.970Z,14.13
2019-04-14T07:59:55.106Z,11.43
2019-04-14T08:02:34.950Z,13.27
2019-04-14T08:05:15.685Z,13.43
2019-04-14T08:07:45.805Z,11.80
2019-04-14T08:10:15.391Z,10.23
2019-04-14T08:12:44.842Z,13.47
2019-04-14T08:15:14.447Z,11.47
2019-04-14T08:17:43.880Z,13.27
2019-04-14T08:20:13.514Z,15.60
2019-04-14T08:22:43.251Z,10.67
2019-04-14T08:25:12.869Z,13.07
2019-04-14T08:27:42.327Z,12.93
2019-04-14T08:30:12.056Z,9.10
2019-04-14T08:32:43.086Z,11.83
2019-04-14T08:35:12.706Z,9.73
2019-04-14T08:37:42.211Z,11.50
2019-04-14T08:40:12.831Z,8.20
2019-04-14T08:43:00.159Z,9.70
2019-04-14T08:45:42.769Z,10.50
2019-04-14T08:48:19.923Z,7.90
2019-04-14T08:50:51.270Z,10.47
2019-04-14T08:53:22.498Z,6.77
2019-04-14T08:56:09.875Z,7.73
2019-04-14T08:58:46.994Z,8.70
2019-04-14T09:01:18.510Z,8.10
2019-04-14T09:03:49.627Z,7.20
2019-04-14T09:06:20.703Z,7.83
2019-04-14T09:09:20.400Z,7.27
2019-04-14T09:11:54.271Z,7.53
2019-04-14T09:14:23.733Z,6.83
2019-04-14T09:16:53.158Z,8.17
2019-04-14T09:19:22.771Z,7.13
2019-04-14T09:21:52.203Z,7.57
2019-04-14T09:24:21.646Z,8.80
2019-04-14T09:26:51.196Z,9.33
2019-04-14T09:29:20.639Z,8.93
2019-04-14T09:31:51.651Z,6.93
2019-04-14T09:34:22.722Z,7.07
2019-04-14T09:36:52.166Z,7.43
2019-04-14T09:39:21.607Z,9.47
2019-04-14T09:41:51.178Z,8.67
2019-04-14T09:44:20.624Z,9.80
2019-04-14T09:46:50.083Z,7.53
2019-04-14T09:49:19.588Z,7.67
2019-04-14T09:51:49.059Z,6.33
2019-04-14T09:54:18.484Z,9.00
2019-04-14T09:56:47.931Z,9.27
2019-04-14T09:59:17.462Z,9.83
2019-04-14T10:01:46.950Z,7.90
2019-04-14T10:04:16.371Z,9.70
2019-04-14T10:06:45.837Z,11.03
2019-04-14T10:09:15.524Z,9.17
2019-04-14T10:11:48.865Z,7.70
2019-04-14T10:14:16.083Z,7.40
2019-04-14T10:16:45.542Z,10.00
2019-04-14T10:19:15.098Z,11.40
2019-04-14T10:21:44.533Z,10.90
2019-04-14T10:24:14.032Z,7.03
2019-04-14T10:26:43.563Z,7.20
2019-04-14T10:29:13.790Z,7.60
2019-04-14T10:31:43.601Z,8.10
2019-04-14T10:34:13.043Z,8.60
2019-04-14T10:36:42.551Z,9.00
2019-04-14T10:39:12.044Z,9.87
2019-04-14T10:41:41.612Z,8.57
2019-04-14T10:44:11.103Z,7.20
2019-04-14T10:46:40.620Z,6.67
2019-04-14T10:49:11.057Z,6.47
2019-04-14T10:51:44.332Z,8.93
2019-04-14T10:54:14.406Z,8.17
2019-04-14T10:56:43.895Z,9.80
2019-04-14T10:59:14.956Z,8.47
2019-04-14T11:01:44.497Z,8.37
2019-04-14T11:04:15.087Z,8.93
2019-04-14T11:06:46.241Z,8.67
2019-04-14T11:09:15.945Z,9.53
2019-04-14T11:11:45.536Z,13.07
2019-04-14T11:14:15.060Z,10.80
2019-04-14T11:16:44.617Z,9.50
2019-04-14T11:19:14.081Z,16.93
2019-04-14T11:21:43.531Z,10.73
2019-04-14T11:24:13.035Z,19.23
2019-04-14T11:26:42.523Z,17.27
2019-04-14T11:29:12.017Z,14.80
2019-04-14T11:31:51.744Z,12.73
2019-04-14T11:34:22.867Z,20.17
2019-04-14T11:37:11.693Z,7.83
2019-04-14T11:39:42.539Z,9.53
2019-04-14T11:42:12.049Z,8.97
2019-04-14T11:44:41.553Z,11.07
2019-04-14T11:47:11.292Z,8.17
2019-04-14T11:49:40.744Z,11.17
2019-04-14T11:52:10.277Z,9.23
2019-04-14T11:54:59.587Z,9.20
2019-04-14T11:57:29.101Z,9.53
2019-04-14T12:00:03.174Z,10.70
2019-04-14T12:02:50.372Z,14.40
2019-04-14T12:05:21.546Z,10.90
2019-04-14T12:07:52.655Z,7.93
2019-04-14T12:10:23.313Z,9.47
2019-04-14T12:12:52.772Z,9.67
2019-04-14T12:15:22.222Z,9.87
2019-04-14T12:17:51.677Z,8.53
2019-04-14T12:20:21.405Z,7.03
2019-04-14T12:22:50.921Z,9.50
2019-04-14T12:25:20.410Z,7.23
2019-04-14T12:27:51.381Z,6.17
2019-04-14T12:30:22.395Z,7.13
2019-04-14T12:32:53.583Z,6.60
2019-04-14T12:35:23.143Z,6.37
2019-04-14T12:37:53.983Z,6.50
2019-04-14T12:40:25.287Z,9.90
2019-04-14T12:42:59.156Z,4.90
2019-04-14T12:45:45.375Z,8.53
2019-04-14T12:48:16.599Z,7.13
2019-04-14T12:50:47.791Z,11.03
2019-04-14T12:53:17.703Z,8.10
2019-04-14T12:55:47.143Z,10.93
2019-04-14T12:58:18.276Z,5.97
2019-04-14T13:00:49.363Z,8.50
2019-04-14T13:03:19.545Z,7.83
2019-04-14T13:05:49.029Z,5.83
2019-04-14T13:08:18.489Z,6.13
2019-04-14T13:10:47.978Z,8.20
2019-04-14T13:13:17.530Z,8.50
2019-04-14T13:15:47.103Z,10.27
2019-04-14T13:18:16.583Z,10.20
2019-04-14T13:20:46.106Z,6.97
2019-04-14T13:23:15.570Z,6.33
2019-04-14T13:25:45.024Z,7.43
2019-04-14T13:28:14.484Z,9.53
2019-04-14T13:30:45.790Z,11.50
2019-04-14T13:33:18.135Z,6.93
2019-04-14T13:35:47.624Z,7.77
2019-04-14T13:38:17.070Z,5.90
2019-04-14T13:40:46.679Z,6.70
2019-04-14T13:43:16.173Z,7.80
2019-04-14T13:45:46.327Z,8.50
2019-04-14T13:48:16.010Z,7.07
2019-04-14T13:50:45.621Z,7.33
2019-04-14T13:53:15.095Z,9.00
2019-04-14T13:55:45.716Z,9.00
2019-04-14T13:58:15.497Z,7.70
2019-04-14T14:00:45.011Z,7.50
2019-04-14T14:03:14.471Z,10.30
2019-04-14T14:05:44.010Z,12.13
2019-04-14T14:08:14.372Z,11.33
2019-04-14T14:10:43.931Z,10.33
2019-04-14T14:13:18.080Z,10.03
2019-04-14T14:15:50.013Z,8.20
2019-04-14T14:18:32.922Z,9.43
2019-04-14T14:21:08.261Z,10.47
2019-04-14T14:23:39.428Z,9.73
2019-04-14T14:26:10.626Z,9.30
2019-04-14T14:28:40.084Z,10.20
2019-04-14T14:31:09.552Z,8.80
2019-04-14T14:33:39.076Z,6.77
2019-04-14T14:36:08.578Z,11.20
2019-04-14T14:38:38.039Z,8.53
2019-04-14T14:41:09.284Z,8.00
2019-04-14T14:43:38.760Z,7.77
2019-04-14T14:46:25.827Z,11.00
2019-04-14T14:49:06.016Z,8.87
2019-04-14T14:51:45.952Z,6.00
2019-04-14T14:54:15.482Z,7.17
2019-04-14T14:56:45.015Z,9.87
2019-04-14T14:59:14.450Z,7.33
2019-04-14T15:01:44.056Z,7.53
2019-04-14T15:04:13.556Z,12.03
2019-04-14T15:06:43.126Z,7.73
2019-04-14T15:09:12.583Z,8.37
2019-04-14T15:11:42.093Z,8.13
2019-04-14T15:14:11.588Z,8.43
2019-04-14T15:16:41.149Z,8.63
2019-04-14T15:19:10.872Z,9.67
2019-04-14T15:21:40.290Z,7.90
2019-04-14T15:26:51.431Z,8.00
2019-04-14T15:29:21.726Z,8.83
2019-04-14T15:31:51.260Z,8.60
2019-04-14T15:34:20.788Z,12.07
2019-04-14T15:36:51.987Z,9.13
2019-04-14T15:39:21.437Z,8.87
2019-04-14T15:41:50.909Z,12.07
2019-04-14T15:44:20.495Z,8.07
2019-04-14T15:46:49.974Z,10.43
2019-04-14T15:49:19.486Z,7.70
2019-04-14T15:51:48.937Z,14.70
2019-04-14T15:54:18.398Z,10.27
2019-04-14T15:56:58.268Z,10.30
2019-04-14T15:59:29.741Z,10.10
2019-04-14T16:02:18.772Z,10.83
2019-04-14T16:04:52.907Z,11.00
2019-04-14T16:07:24.097Z,12.23
2019-04-14T16:09:58.329Z,9.13
2019-04-14T16:12:29.534Z,9.53
2019-04-14T16:15:06.435Z,9.20
2019-04-14T16:17:37.639Z,8.40
2019-04-14T16:20:09.770Z,8.80
2019-04-14T16:22:39.330Z,8.63
2019-04-14T16:25:09.227Z,8.57
2019-04-14T16:27:49.639Z,7.40
2019-04-14T16:30:26.647Z,7.30
2019-04-14T16:33:06.273Z,8.73
2019-04-14T16:35:37.475Z,11.47
2019-04-14T16:38:06.972Z,9.23
2019-04-14T16:40:37.801Z,11.17
2019-04-14T16:43:07.284Z,8.80
2019-04-14T16:45:37.819Z,12.87
2019-04-14T16:48:07.359Z,8.90
2019-04-14T16:50:36.855Z,10.97
2019-04-14T16:53:25.893Z,10.97
2019-04-14T16:55:59.539Z,12.00
2019-04-14T16:58:42.359Z,9.20
2019-04-14T17:01:13.434Z,9.40
2019-04-14T17:03:42.984Z,10.10
2019-04-14T17:06:12.407Z,8.53
2019-04-14T17:08:41.951Z,8.17
2019-04-14T17:11:11.472Z,8.90
2019-04-14T17:13:42.690Z,9.90
2019-04-14T17:16:30.028Z,9.47
2019-04-14T17:19:10.102Z,11.97
2019-04-14T17:21:43.984Z,9.77
2019-04-14T17:24:31.249Z,10.40
2019-04-14T17:27:05.072Z,9.60
2019-04-14T17:29:36.436Z,11.63
2019-04-14T17:32:23.347Z,14.17
2019-04-14T17:34:54.443Z,9.97
2019-04-14T17:37:41.923Z,12.00
2019-04-14T17:40:25.427Z,12.63
2019-04-14T17:42:56.498Z,12.97
2019-04-14T17:45:33.232Z,13.27
2019-04-14T17:48:07.095Z,14.57
2019-04-14T17:50:50.246Z,13.33
2019-04-14T17:53:21.432Z,13.93
2019-04-14T17:55:58.495Z,14.40
2019-04-14T17:58:29.619Z,17.10
2019-04-14T18:01:16.767Z,13.70
2019-04-14T18:03:48.964Z,20.23
2019-04-14T18:06:20.111Z,19.03
2019-04-14T18:09:00.267Z,19.13
2019-04-14T18:11:49.346Z,17.17
2019-04-14T18:14:36.163Z,14.17
2019-04-14T18:17:23.203Z,14.77
2019-04-14T18:20:12.045Z,16.80
2019-04-14T18:22:41.519Z,17.27
2019-04-14T18:25:11.120Z,15.93
2019-04-14T18:27:42.291Z,20.13
2019-04-14T18:30:15.985Z,17.73
2019-04-14T18:32:47.104Z,14.87
2019-04-14T18:35:18.199Z,20.37
2019-04-14T18:37:49.363Z,16.53
2019-04-14T18:40:29.356Z,17.00
2019-04-14T18:43:06.267Z,20.10
2019-04-14T18:45:42.711Z,17.13
2019-04-14T18:48:18.676Z,17.07
2019-04-14T18:51:01.707Z,24.67
2019-04-14T18:53:36.893Z,29.80
2019-04-14T18:56:13.435Z,31.77
2019-04-14T18:59:00.955Z,32.00
2019-04-14T19:01:32.031Z,306.63
2019-04-14T19:04:02.446Z,181.10
2019-04-14T19:06:32.297Z,110.83
2019-04-14T19:09:01.839Z,89.87
2019-04-14T19:11:40.478Z,82.57
2019-04-14T19:14:11.849Z,142.10
2019-04-14T19:16:42.895Z,114.40
2019-04-14T19:19:12.870Z,61.37
2019-04-14T19:21:45.239Z,37.97
2019-04-14T19:24:14.841Z,41.13
2019-04-14T19:26:44.313Z,31.33
2019-04-14T19:29:13.829Z,38.07
2019-04-14T19:31:43.379Z,33.23
2019-04-14T19:34:12.824Z,35.97
2019-04-14T19:36:42.281Z,33.10
2019-04-14T19:39:11.816Z,32.93
2019-04-14T19:41:41.375Z,39.13
2019-04-14T19:44:10.817Z,36.93
2019-04-14T19:46:41.300Z,34.60
2019-04-14T19:49:10.807Z,34.40
2019-04-14T19:51:40.313Z,34.07
2019-04-14T19:54:09.789Z,35.17
2019-04-14T19:56:39.247Z,30.73
2019-04-14T19:59:08.694Z,31.50
2019-04-14T20:01:38.199Z,28.87
2019-04-14T20:04:07.649Z,30.87
2019-04-14T20:06:37.080Z,26.23
2019-04-14T20:09:07.233Z,24.83
2019-04-14T20:11:37.511Z,24.57
2019-04-14T20:14:06.976Z,26.07
2019-04-14T20:16:40.701Z,28.27
2019-04-14T20:19:27.735Z,27.20
2019-04-14T20:22:10.826Z,24.50
2019-04-14T20:24:41.961Z,23.27
2019-04-14T20:27:29.173Z,26.77
2019-04-14T20:30:15.353Z,22.50
2019-04-14T20:32:45.732Z,23.90
2019-04-14T20:35:15.167Z,25.20
2019-04-14T20:37:44.689Z,26.33
2019-04-14T20:40:14.302Z,25.03
2019-04-14T20:42:43.767Z,29.23
2019-04-14T20:45:14.590Z,21.33
2019-04-14T20:47:44.042Z,23.57
2019-04-14T20:50:13.817Z,20.83
2019-04-14T20:52:43.366Z,20.43
2019-04-14T20:55:12.977Z,23.23
2019-04-14T20:57:43.599Z,21.93
2019-04-14T21:00:14.431Z,23.03
2019-04-14T21:03:01.816Z,23.47
2019-04-14T21:05:34.104Z,23.83
2019-04-14T21:08:17.175Z,22.77
2019-04-14T21:10:48.252Z,21.10
2019-04-14T21:13:22.020Z,20.67
2019-04-14T21:15:53.173Z,22.60
2019-04-14T21:18:24.195Z,25.53
2019-04-14T21:21:06.828Z,19.23
2019-04-14T21:23:40.772Z,23.83
2019-04-14T21:26:17.405Z,21.43
2019-04-14T21:28:51.452Z,23.20
2019-04-14T21:31:28.391Z,18.37
2019-04-14T21:34:15.710Z,23.50
2019-04-14T21:36:52.444Z,19.43
2019-04-14T21:39:40.670Z,21.30
2019-04-14T21:42:09.527Z,23.67
2019-04-14T21:44:38.978Z,22.43
2019-04-14T21:47:08.538Z,21.30
2019-04-14T21:49:37.993Z,21.70
2019-04-14T21:52:20.757Z,21.63
2019-04-14T21:54:50.211Z,22.23
2019-04-14T21:57:26.960Z,25.40
2019-04-14T22:00:14.210Z,23.43
2019-04-14T22:02:52.576Z,21.23
2019-04-14T22:05:26.583Z,25.17
2019-04-14T22:08:09.426Z,27.00
2019-04-14T22:10:40.611Z,26.53
2019-04-14T22:13:10.105Z,21.17
2019-04-14T22:15:39.618Z,22.23
2019-04-14T22:18:09.125Z,19.40
2019-04-14T22:20:38.580Z,20.00
2019-04-14T22:23:09.758Z,19.63
2019-04-14T22:25:39.190Z,20.10
2019-04-14T22:28:09.366Z,20.83
2019-04-14T22:30:38.940Z,20.23
2019-04-14T22:33:08.471Z,20.10
2019-04-14T22:35:37.914Z,21.03
2019-04-14T22:38:07.350Z,24.50
2019-04-14T22:40:36.939Z,20.40
2019-04-14T22:43:06.521Z,19.23
2019-04-14T22:45:35.954Z,19.23
2019-04-14T22:48:05.544Z,18.27
2019-04-14T22:50:35.082Z,18.47
2019-04-14T22:53:04.502Z,18.77
2019-04-14T22:55:33.958Z,18.40
2019-04-14T22:58:03.436Z,18.13
2019-04-14T23:00:37.284Z,17.30
2019-04-14T23:03:24.680Z,18.67
2019-04-14T23:05:55.888Z,20.23
2019-04-14T23:08:32.670Z,18.67
2019-04-14T23:11:09.706Z,17.07
2019-04-14T23:13:43.744Z,20.70
2019-04-14T23:16:20.803Z,19.50
2019-04-14T23:18:54.482Z,17.83
2019-04-14T23:21:41.550Z,17.10
2019-04-14T23:24:21.397Z,19.73
2019-04-14T23:26:52.637Z,19.67
2019-04-14T23:29:21.934Z,15.97
2019-04-14T23:31:51.294Z,18.57
2019-04-14T23:34:21.270Z,14.97
2019-04-14T23:36:50.703Z,17.90
2019-04-14T23:39:20.195Z,16.23
2019-04-14T23:41:49.697Z,13.73
2019-04-14T23:44:19.132Z,18.17
2019-04-14T23:46:48.609Z,18.50
2019-04-14T23:49:18.042Z,14.97
2019-04-14T23:51:47.603Z,15.80
2019-04-14T23:54:17.106Z,16.77
2019-04-14T23:56:46.588Z,16.70
2019-04-14T23:59:16.850Z,15.07
